Sawtelle Peak

Sawtelle summit stationLocated on Sawtelle Peak in the Centennials. Use the Sawtelle SNOdar or the nearest SNOTEL station for snow depth data: White Elephant. The data on this page is also available to view at dataGarrison.com.

 

Elevation
9885ft
Jump to table bottom
Date Time Temperature
deg F
RH, % Wind Speed Wind Gust Wind Direction Pressure Light
04/12/24 18:00 40.4 61 8 27 SW - 244 703.440 214,340
04/12/24 17:00 34.5 83 14 32 W - 256 704.160 154,338
04/12/24 16:00 38.6 62 15 38 W - 257 703.420 571,302
04/12/24 15:00 40.5 60 24 56 W - 257 703.740 937,417
04/12/24 14:00 35.0 74 28 47 W - 260 702.980 526,555
04/12/24 13:00 36.9 61 38 51 W - 263 702.820 1,006,572
04/12/24 12:00 35.9 62 34 52 W - 261 702.560 709,612
04/12/24 11:00 36.6 59 26 39 W - 265 702.980 1,018,776
04/12/24 10:00 35.5 60 19 32 W - 254 703.060 953,689
04/12/24 9:00 34.4 60 15 28 SW - 247 702.940 1,043,183
04/12/24 8:00 33.0 60 22 32 SW - 241 702.660 827,582
04/12/24 7:00 32.0 60 26 33 SW - 246 702.420 475,705
04/12/24 6:00 31.5 61 26 36 W - 256 701.880 4,539
04/12/24 5:00 31.7 61 29 41 W - 256 702.140 0
04/12/24 4:00 31.4 65 33 45 W - 258 702.280 0
04/12/24 3:00 31.6 68 33 46 W - 260 702.280 0
04/12/24 2:00 31.7 70 33 44 W - 263 702.620 0
04/12/24 1:00 30.7 72 31 43 W - 260 702.800 0
04/11/24 24:00 31.2 71 34 42 W - 258 702.740 0
04/11/24 23:00 31.6 67 34 42 W - 256 702.980 0
04/11/24 22:00 31.5 65 33 42 W - 253 703.160 0
04/11/24 21:00 31.3 63 32 39 W - 248 703.180 0
04/11/24 20:00 31.0 64 29 38 W - 248 703.400 31
04/11/24 19:00 31.1 61 24 33 W - 258 703.480 49,843
04/11/24 18:00 31.6 60 23 36 W - 265 703.920 181,796
04/11/24 17:00 31.2 58 24 35 W - 263 704.280 150,270
04/11/24 16:00 32.0 60 20 32 W - 268 704.620 504,181
04/11/24 15:00 30.7 63 22 31 W - 264 704.880 648,593
04/11/24 14:00 29.2 60 18 30 W - 275 705.080 632,321
04/11/24 13:00 29.2 57 19 30 W - 274 705.260 1,051,319
04/11/24 12:00 28.0 68 15 29 W - 261 705.480 1,148,950
04/11/24 11:00 27.5 70 10 20 W - 263 705.920 1,165,222
04/11/24 10:00 28.0 48 6 28 W - 268 706.020 1,116,406
04/11/24 9:00 28.6 58 8 15 W - 279 705.880 1,018,776
04/11/24 8:00 26.5 60 11 18 W - 277 705.900 823,514
04/11/24 7:00 23.8 66 16 27 W - 260 705.660 428,924
04/11/24 6:00 23.8 65 14 21 W - 272 705.600 2,002
04/11/24 5:00 22.7 66 9 17 W - 286 705.780 0
04/11/24 4:00 22.9 74 8 16 W - 289 705.740 0
04/11/24 3:00 24.5 74 8 16 W - 281 705.940 0
04/11/24 2:00 25.3 76 19 27 W - 278 706.460 0
04/11/24 1:00 25.3 75 26 33 W - 272 706.540 0
04/10/24 24:00 24.8 76 25 32 W - 265 706.700 0
04/10/24 23:00 25.0 76 26 34 W - 270 707.220 0
04/10/24 22:00 25.2 72 28 33 W - 265 707.440 0
04/10/24 21:00 24.8 69 24 32 W - 265 706.980 0
04/10/24 20:00 24.1 76 16 23 W - 289 707.280 27
04/10/24 19:00 24.9 68 14 21 W - 281 707.300 61,284
04/10/24 18:00 27.4 64 10 24 NW - 298 707.800 234,680
04/10/24 17:00 27.2 63 9 24 NW - 312 707.720 420,788